Time;durP1;ratioP1;P1;durP2;ratioP2;P2;SDS_P1;SDS_P2;PMS_P1;PMS_P2;Temp;Humidity;BMP_temperature;BMP_pressure;BME280_temperature;BME280_humidity;BME280_pressure;Samples;Min_cycle;Max_cycle;Signal;HPM_P1;HPM_P2
2022/05/26 00:00:09;;;;;;;;;;;;;;;11.67;100.00;98402.66;1651689;85;21968;-88
2022/05/26 00:02:37;;;;;;;;;;;;;;;11.64;100.00;98405.99;1649948;85;21017;-87
2022/05/26 00:05:03;;;;;;;;;;;;;;;11.58;100.00;98401.20;1652279;85;24418;-84
2022/05/26 00:07:31;;;;;;;;;;;;;;;11.53;100.00;98395.00;1660457;85;20212;-84
2022/05/26 00:09:57;;;;;;;;;;;;;;;11.48;100.00;98398.44;1662488;85;24750;-87
2022/05/26 00:12:23;;;;;;;;;;;;;;;11.46;100.00;98402.94;1662179;84;20257;-87
2022/05/26 00:14:51;;;;;;;;;;;;;;;11.44;100.00;98401.41;1653538;85;23871;-84
2022/05/26 00:17:18;;;;;;;;;;;;;;;11.39;100.00;98400.44;1660930;85;24617;-84
2022/05/26 00:19:43;;;;;;;;;;;;;;;11.36;100.00;98407.66;1665161;85;20907;-87
2022/05/26 00:22:09;;;;;;;;;;;;;;;11.35;100.00;98402.90;1653705;83;21104;-88
2022/05/26 00:24:35;;;;;;;;;;;;;;;11.35;100.00;98396.85;1649673;85;20598;-86
2022/05/26 00:27:01;;;;;;;;;;;;;;;11.33;100.00;98397.80;1657991;85;26250;-86
2022/05/26 00:29:30;;;;;;;;;;;;;;;11.32;100.00;98400.52;1641570;85;20250;-86
2022/05/26 00:31:56;;;;;;;;;;;;;;;11.32;100.00;98406.59;1661470;85;20296;-85
2022/05/26 00:34:22;;;;;;;;;;;;;;;11.29;100.00;98408.11;1657583;85;24823;-87
2022/05/26 00:36:53;;;;;;;;;;;;;;;11.23;100.00;98407.28;1659066;85;22625;-88
2022/05/26 00:39:24;;;;;;;;;;;;;;;11.20;100.00;98419.27;1652567;85;26164;-86
2022/05/26 00:41:58;;;;;;;;;;;;;;;11.19;100.00;98420.68;1659297;85;24409;-85
2022/05/26 00:44:24;;;;;;;;;;;;;;;11.18;100.00;98414.61;1667796;85;20283;-85
2022/05/26 00:46:58;;;;;;;;;;;;;;;11.16;100.00;98411.75;1671292;85;24956;-84
2022/05/26 00:49:43;;;;;;;;;;;;;;;11.19;100.00;98414.97;1671121;84;22214;-84
2022/05/26 00:52:11;;;;;;;;;;;;;;;11.20;100.00;98407.95;1670276;85;26028;-88
2022/05/26 00:54:37;;;;;;;;;;;;;;;11.17;100.00;98402.48;1666867;85;24554;-88
2022/05/26 00:57:11;;;;;;;;;;;;;;;11.17;100.00;98402.95;1671356;85;20491;-87
2022/05/26 00:59:40;;;;;;;;;;;;;;;11.17;100.00;98407.72;1666278;85;24737;-88
2022/05/26 01:02:13;;;;;;;;;;;;;;;11.15;100.00;98409.60;1667048;85;22629;-88
2022/05/26 01:04:43;;;;;;;;;;;;;;;11.15;100.00;98416.15;1667193;85;25988;-87
2022/05/26 01:07:11;;;;;;;;;;;;;;;11.13;100.00;98418.03;1666319;85;24464;-85
2022/05/26 01:09:43;;;;;;;;;;;;;;;11.11;100.00;98412.56;1672415;85;20243;-85
2022/05/26 01:12:09;;;;;;;;;;;;;;;11.14;100.00;98414.47;1669761;85;24833;-88
2022/05/26 01:14:43;;;;;;;;;;;;;;;11.13;100.00;98415.88;1666550;85;20289;-88
2022/05/26 01:17:27;;;;;;;;;;;;;;;11.12;100.00;98417.70;1671776;85;26067;-85
2022/05/26 01:20:12;;;;;;;;;;;;;;;11.15;100.00;98421.86;1672476;85;24464;-85
2022/05/26 01:22:55;;;;;;;;;;;;;;;11.16;100.00;98418.30;1669149;85;20192;-84
2022/05/26 01:25:36;;;;;;;;;;;;;;;11.20;100.00;98421.89;1668286;85;24830;-85
2022/05/26 01:28:07;;;;;;;;;;;;;;;11.21;100.00;98422.73;1671289;85;22795;-85
2022/05/26 01:30:38;;;;;;;;;;;;;;;11.23;100.00;98414.30;1671312;85;26842;-86
2022/05/26 01:33:05;;;;;;;;;;;;;;;11.25;100.00;98414.53;1664579;85;24542;-88
2022/05/26 01:35:39;;;;;;;;;;;;;;;11.24;100.00;98415.47;1667229;85;20226;-88
2022/05/26 01:38:10;;;;;;;;;;;;;;;11.25;100.00;98406.67;1668795;84;24935;-88
2022/05/26 01:40:57;;;;;;;;;;;;;;;11.27;100.00;98416.58;1667429;85;22013;-89
2022/05/26 01:43:28;;;;;;;;;;;;;;;11.30;100.00;98412.41;1670824;85;26006;-87
2022/05/26 01:46:14;;;;;;;;;;;;;;;11.33;100.00;98413.98;1686383;85;24421;-87
2022/05/26 01:48:44;;;;;;;;;;;;;;;11.35;100.00;98416.00;1685726;85;20251;-87
2022/05/26 01:51:28;;;;;;;;;;;;;;;11.38;100.00;98413.64;1684352;85;25448;-86
2022/05/26 01:54:02;;;;;;;;;;;;;;;11.40;100.00;98410.45;1649600;86;22095;-86
2022/05/26 01:56:47;;;;;;;;;;;;;;;11.40;100.00;98413.06;1654117;86;26080;-87
2022/05/26 01:59:20;;;;;;;;;;;;;;;11.40;100.00;98407.32;1650263;86;24495;-88
2022/05/26 02:01:48;;;;;;;;;;;;;;;11.40;100.00;98409.13;1641729;86;20249;-88
2022/05/26 02:04:18;;;;;;;;;;;;;;;11.39;100.00;98406.98;1655143;86;24818;-86
2022/05/26 02:06:49;;;;;;;;;;;;;;;11.40;100.00;98405.20;1652374;85;22343;-86
2022/05/26 02:09:19;;;;;;;;;;;;;;;11.39;100.00;98403.53;1648661;86;26022;-89
2022/05/26 02:11:59;;;;;;;;;;;;;;;11.38;100.00;98409.23;1644713;85;24618;-88
2022/05/26 02:14:30;;;;;;;;;;;;;;;11.36;100.00;98403.73;1635347;86;20257;-85
2022/05/26 02:16:57;;;;;;;;;;;;;;;11.35;100.00;98409.95;1675319;85;24745;-88
2022/05/26 02:19:34;;;;;;;;;;;;;;;11.33;100.00;98412.67;1683895;85;22117;-88
2022/05/26 02:22:21;;;;;;;;;;;;;;;11.33;100.00;98410.89;1675493;85;26825;-89
2022/05/26 02:25:01;;;;;;;;;;;;;;;11.36;100.00;98400.64;1645204;86;24627;-88
2022/05/26 02:27:28;;;;;;;;;;;;;;;11.36;100.00;98407.66;1649877;86;20276;-88
2022/05/26 02:29:59;;;;;;;;;;;;;;;11.36;100.00;98408.97;1681709;85;24849;-88
2022/05/26 02:32:25;;;;;;;;;;;;;;;11.39;100.00;98410.08;1681590;85;22723;-89
2022/05/26 02:34:53;;;;;;;;;;;;;;;11.40;100.00;98410.45;1682739;83;26097;-87
2022/05/26 02:37:26;;;;;;;;;;;;;;;11.41;100.00;98410.31;1682108;85;25210;-86
2022/05/26 02:39:58;;;;;;;;;;;;;;;11.41;100.00;98408.16;1685325;85;20241;-86
2022/05/26 02:42:24;;;;;;;;;;;;;;;11.43;100.00;98412.83;1655524;86;24766;-86
2022/05/26 02:44:51;;;;;;;;;;;;;;;11.45;100.00;98410.47;1652657;85;22022;-85
2022/05/26 02:47:22;;;;;;;;;;;;;;;11.43;100.00;98411.05;1669498;85;26229;-85
2022/05/26 02:49:55;;;;;;;;;;;;;;;11.44;100.00;98417.13;1577761;88;24614;-85
2022/05/26 02:55:29;;;;;;;;;;;;;;;11.38;100.00;98414.95;1669451;85;24750;-88
2022/05/26 02:58:03;;;;;;;;;;;;;;;11.36;100.00;98417.67;1670059;85;22141;-88
2022/05/26 03:00:48;;;;;;;;;;;;;;;11.34;100.00;98415.66;1668025;85;26693;-88
2022/05/26 03:03:16;;;;;;;;;;;;;;;11.31;100.00;98410.63;1669178;85;24506;-88
2022/05/26 03:05:47;;;;;;;;;;;;;;;11.31;100.00;98411.47;1664011;85;20220;-88
2022/05/26 03:08:15;;;;;;;;;;;;;;;11.28;100.00;98414.33;1666530;85;24843;-88
2022/05/26 03:10:43;;;;;;;;;;;;;;;11.29;100.00;98418.59;1674929;85;22182;-88
2022/05/26 03:13:10;;;;;;;;;;;;;;;11.32;100.00;98415.77;1666313;83;26070;-86
2022/05/26 03:15:37;;;;;;;;;;;;;;;11.30;100.00;98412.41;1671229;85;24426;-86
2022/05/26 03:18:05;;;;;;;;;;;;;;;11.30;100.00;98413.72;1671209;84;20189;-88
2022/05/26 03:20:32;;;;;;;;;;;;;;;11.28;100.00;98414.33;1666016;84;24790;-86
2022/05/26 03:22:58;;;;;;;;;;;;;;;11.30;100.00;98409.79;1667831;85;22024;-86
2022/05/26 03:25:25;;;;;;;;;;;;;;;11.32;100.00;98410.52;1669064;85;26041;-86
2022/05/26 03:27:51;;;;;;;;;;;;;;;11.33;100.00;98405.66;1670230;84;24447;-86
2022/05/26 03:30:17;;;;;;;;;;;;;;;11.35;100.00;98409.95;1669412;85;20352;-85
2022/05/26 03:32:43;;;;;;;;;;;;;;;11.40;100.00;98407.83;1667327;85;24786;-86
2022/05/26 03:41:14;;;;;;;;;;;;;;;11.75;100.00;98415.23;1619906;87;24357;-86
2022/05/26 03:43:15;;;;;;;;;;;;;;;11.88;100.00;98417.31;1616801;87;20264;-86
2022/05/26 03:45:42;;;;;;;;;;;;;;;12.01;100.00;98421.97;1638250;85;25407;-88
2022/05/26 03:48:09;;;;;;;;;;;;;;;12.13;100.00;98425.45;1675607;85;22095;-88
2022/05/26 03:50:35;;;;;;;;;;;;;;;12.26;100.00;98421.42;1666348;85;25998;-88
2022/05/26 03:53:02;;;;;;;;;;;;;;;12.37;100.00;98423.58;1667493;85;24502;-88
2022/05/26 03:55:28;;;;;;;;;;;;;;;12.45;100.00;98421.66;1670334;85;20214;-88
2022/05/26 03:57:54;;;;;;;;;;;;;;;12.52;100.00;98422.86;1670512;85;24921;-86
2022/05/26 04:00:22;;;;;;;;;;;;;;;12.67;100.00;98430.02;1670783;85;22029;-87
2022/05/26 04:02:48;;;;;;;;;;;;;;;12.79;100.00;98431.68;1674458;84;26793;-87
2022/05/26 04:05:14;;;;;;;;;;;;;;;12.84;100.00;98421.17;1674206;85;24540;-86
2022/05/26 04:07:40;;;;;;;;;;;;;;;13.03;100.00;98430.22;1670432;85;20224;-88
2022/05/26 04:10:08;;;;;;;;;;;;;;;13.15;100.00;98431.87;1671965;85;24753;-88
2022/05/26 04:12:35;;;;;;;;;;;;;;;13.30;100.00;98435.45;1666197;85;22088;-88
2022/05/26 04:15:02;;;;;;;;;;;;;;;13.47;100.00;98434.08;1675398;85;26013;-88
2022/05/26 04:17:31;;;;;;;;;;;;;;;13.61;100.00;98428.52;1672108;85;25293;-88
2022/05/26 04:19:57;;;;;;;;;;;;;;;13.73;100.00;98429.30;1669829;85;20264;-88
2022/05/26 04:22:23;;;;;;;;;;;;;;;13.81;100.00;98429.48;1668959;85;20227;-88
2022/05/26 04:24:56;;;;;;;;;;;;;;;13.83;100.00;98431.04;1666114;85;21997;-88
2022/05/26 04:27:23;;;;;;;;;;;;;;;13.90;100.00;98430.53;1674586;84;26116;-88
2022/05/26 04:29:53;;;;;;;;;;;;;;;13.94;100.00;98427.52;1665934;85;24553;-85
2022/05/26 04:32:22;;;;;;;;;;;;;;;13.97;100.00;98431.19;1669751;85;20224;-86
2022/05/26 04:34:48;;;;;;;;;;;;;;;14.01;100.00;98438.37;1674045;85;24832;-88
2022/05/26 04:37:22;;;;;;;;;;;;;;;13.98;100.00;98437.28;1671449;84;21525;-88
2022/05/26 04:39:48;;;;;;;;;;;;;;;13.96;100.00;98437.44;1668526;84;26975;-86
2022/05/26 04:42:14;;;;;;;;;;;;;;;13.99;100.00;98443.75;1667564;85;20826;-89
2022/05/26 04:44:42;;;;;;;;;;;;;;;13.99;100.00;98446.37;1672001;84;20847;-88
2022/05/26 04:47:09;;;;;;;;;;;;;;;13.95;100.00;98446.77;1669420;84;24824;-88
2022/05/26 04:49:37;;;;;;;;;;;;;;;13.89;100.00;98451.22;1670391;84;22093;-88
2022/05/26 04:52:04;;;;;;;;;;;;;;;13.86;100.00;98444.88;1666323;85;26840;-88
2022/05/26 04:54:40;;;;;;;;;;;;;;;13.87;100.00;98446.55;1670296;84;23946;-88
2022/05/26 04:57:09;;;;;;;;;;;;;;;13.88;100.00;98450.38;1674334;85;20192;-88
2022/05/26 04:59:35;;;;;;;;;;;;;;;13.90;100.00;98451.10;1671732;85;24755;-88
2022/05/26 05:02:01;;;;;;;;;;;;;;;13.93;100.00;98452.15;1669549;85;21951;-85
2022/05/26 05:04:31;;;;;;;;;;;;;;;13.95;100.00;98449.40;1673109;84;26039;-88
2022/05/26 05:06:57;;;;;;;;;;;;;;;13.94;100.00;98452.51;1668856;85;24409;-86
2022/05/26 05:09:29;;;;;;;;;;;;;;;13.95;100.00;98452.03;1674800;85;20196;-86
2022/05/26 05:11:56;;;;;;;;;;;;;;;13.98;100.00;98447.33;1673458;85;24939;-89
2022/05/26 05:14:22;;;;;;;;;;;;;;;14.02;100.00;98447.94;1671794;85;21996;-88
2022/05/26 05:16:48;;;;;;;;;;;;;;;14.10;100.00;98455.53;1666804;85;21173;-88
2022/05/26 05:19:15;;;;;;;;;;;;;;;14.19;100.00;98461.33;1670465;85;24458;-88
2022/05/26 05:21:43;;;;;;;;;;;;;;;14.26;100.00;98457.70;1668619;85;20226;-88
2022/05/26 05:24:10;;;;;;;;;;;;;;;14.32;100.00;98459.82;1672710;85;24830;-88
2022/05/26 05:26:40;;;;;;;;;;;;;;;14.40;100.00;98460.02;1670169;85;21973;-88
2022/05/26 05:29:07;;;;;;;;;;;;;;;14.45;100.00;98457.02;1673282;85;26847;-86
2022/05/26 05:31:35;;;;;;;;;;;;;;;14.52;100.00;98460.77;1670401;84;24446;-86
2022/05/26 05:34:03;;;;;;;;;;;;;;;14.57;100.00;98454.63;1672629;83;20208;-88
2022/05/26 05:36:30;;;;;;;;;;;;;;;14.64;100.00;98454.47;1670380;84;24775;-88
2022/05/26 05:38:58;;;;;;;;;;;;;;;14.74;100.00;98457.97;1670298;84;23423;-88
2022/05/26 05:41:27;;;;;;;;;;;;;;;14.81;100.00;98462.23;1667329;85;26174;-88
2022/05/26 05:43:55;;;;;;;;;;;;;;;14.87;100.00;98463.02;1666086;85;24442;-86
2022/05/26 05:46:22;;;;;;;;;;;;;;;14.95;100.00;98463.17;1664437;85;20180;-86
2022/05/26 05:48:48;;;;;;;;;;;;;;;14.98;100.00;98461.13;1673247;85;24800;-88
2022/05/26 05:51:15;;;;;;;;;;;;;;;15.02;100.00;98460.36;1669525;85;20978;-88
2022/05/26 05:53:45;;;;;;;;;;;;;;;15.02;100.00;98459.88;1668777;85;26679;-87
2022/05/26 05:56:11;;;;;;;;;;;;;;;15.08;100.00;98462.46;1669936;85;24400;-88
2022/05/26 05:58:37;;;;;;;;;;;;;;;15.12;100.00;98469.13;1653167;85;20334;-88
2022/05/26 06:01:05;;;;;;;;;;;;;;;15.15;100.00;98470.19;1667436;85;20235;-88
2022/05/26 06:03:32;;;;;;;;;;;;;;;15.17;100.00;98470.03;1666030;85;22089;-88
2022/05/26 06:05:59;;;;;;;;;;;;;;;15.19;100.00;98474.22;1671477;85;26008;-88
2022/05/26 06:08:27;;;;;;;;;;;;;;;15.27;100.00;98470.44;1673205;85;24416;-88
2022/05/26 06:10:53;;;;;;;;;;;;;;;15.36;100.00;98479.32;1669201;85;20217;-88
2022/05/26 06:13:19;;;;;;;;;;;;;;;15.43;100.00;98472.55;1668915;85;20271;-85
2022/05/26 06:15:46;;;;;;;;;;;;;;;15.49;100.00;98470.17;1667814;85;22030;-85
2022/05/26 06:18:18;;;;;;;;;;;;;;;15.57;100.00;98476.60;1670578;85;26629;-85
2022/05/26 06:20:50;;;;;;;;;;;;;;;15.61;100.00;98477.98;1668766;85;25408;-85
2022/05/26 06:23:17;;;;;;;;;;;;;;;15.70;100.00;98475.87;1670146;85;20629;-84
2022/05/26 06:25:43;;;;;;;;;;;;;;;15.76;100.00;98478.79;1669741;85;24809;-85
2022/05/26 06:30:54;;;;;;;;;;;;;;;15.87;100.00;98469.38;1671496;85;26790;-84
2022/05/26 06:38:56;;;;;;;;;;;;;;;15.94;100.00;98469.66;1671216;85;25478;-88
2022/05/26 06:44:15;;;;;;;;;;;;;;;16.10;100.00;98467.77;1668169;85;26103;-86
2022/05/26 06:46:43;;;;;;;;;;;;;;;16.16;100.00;98470.69;1640939;85;20871;-84
2022/05/26 06:49:09;;;;;;;;;;;;;;;16.22;100.00;98466.66;1639249;86;20520;-88
2022/05/26 06:51:39;;;;;;;;;;;;;;;16.27;100.00;98475.81;1641998;86;20280;-88
2022/05/26 06:54:06;;;;;;;;;;;;;;;16.35;100.00;98471.16;1640019;86;22027;-89
2022/05/26 06:56:32;;;;;;;;;;;;;;;16.43;100.00;98476.55;1640818;87;27415;-88
2022/05/26 06:58:58;;;;;;;;;;;;;;;16.48;100.00;98477.43;1639979;86;24429;-86
2022/05/26 07:01:25;;;;;;;;;;;;;;;16.54;100.00;98483.47;1642353;86;20835;-86
2022/05/26 07:03:52;;;;;;;;;;;;;;;16.59;100.00;98479.94;1639727;86;24842;-85
2022/05/26 07:06:19;;;;;;;;;;;;;;;16.67;100.00;98482.71;1623047;87;22063;-89
2022/05/26 07:08:47;;;;;;;;;;;;;;;16.73;100.00;98482.13;1620279;86;25961;-86
2022/05/26 07:11:16;;;;;;;;;;;;;;;16.81;100.00;98480.07;1642533;86;24526;-88
2022/05/26 07:13:45;;;;;;;;;;;;;;;16.89;100.00;98481.03;1642847;86;20162;-85
2022/05/26 07:16:12;;;;;;;;;;;;;;;16.99;100.00;98479.66;1642206;86;24916;-84
2022/05/26 07:18:39;;;;;;;;;;;;;;;17.04;100.00;98483.53;1640691;86;22129;-85
2022/05/26 07:21:08;;;;;;;;;;;;;;;17.14;100.00;98488.28;1641953;86;26096;-86
2022/05/26 07:23:34;;;;;;;;;;;;;;;17.21;100.00;98489.02;1637477;86;24409;-86
2022/05/26 07:26:02;;;;;;;;;;;;;;;17.27;100.00;98492.39;1578277;86;225503;-88
2022/05/26 07:28:32;;;;;;;;;;;;;;;17.34;100.00;98493.48;1643958;85;24777;-84
2022/05/26 07:30:59;;;;;;;;;;;;;;;17.41;100.00;98492.72;1640373;86;21984;-89
2022/05/26 07:33:25;;;;;;;;;;;;;;;17.49;100.00;98493.31;1642065;86;26875;-88
2022/05/26 07:35:51;;;;;;;;;;;;;;;17.51;100.00;98492.16;1641624;86;20870;-88
2022/05/26 07:41:17;;;;;;;;;;;;;;;17.73;100.00;98487.48;1637904;86;25442;-88
2022/05/26 07:43:47;;;;;;;;;;;;;;;17.84;100.00;98492.52;1639322;86;22704;-88
2022/05/26 07:46:14;;;;;;;;;;;;;;;17.92;100.00;98489.47;1645423;86;26148;-89
2022/05/26 07:48:42;;;;;;;;;;;;;;;18.00;100.00;98487.89;1637294;86;24524;-85
2022/05/26 07:51:14;;;;;;;;;;;;;;;18.07;100.00;98489.76;1641511;87;20222;-85
2022/05/26 07:53:41;;;;;;;;;;;;;;;18.14;100.00;98484.20;1641312;87;24760;-84
2022/05/26 07:56:09;;;;;;;;;;;;;;;18.17;100.00;98485.69;1642401;86;22148;-85
2022/05/26 07:58:35;;;;;;;;;;;;;;;18.21;100.00;98485.75;1641915;87;26080;-84
2022/05/26 08:01:03;;;;;;;;;;;;;;;18.28;100.00;98484.95;1636489;86;24492;-85
2022/05/26 08:03:29;;;;;;;;;;;;;;;18.36;100.00;98482.38;1642944;86;20302;-84
2022/05/26 08:05:55;;;;;;;;;;;;;;;18.43;100.00;98487.06;1642850;86;24745;-87
2022/05/26 08:08:23;;;;;;;;;;;;;;;18.48;100.00;98486.10;1641835;87;22065;-87
2022/05/26 08:10:49;;;;;;;;;;;;;;;18.50;100.00;98493.39;1640816;86;25976;-87
2022/05/26 08:13:15;;;;;;;;;;;;;;;18.53;100.00;98484.65;1587507;86;554086;-85
2022/05/26 08:15:43;;;;;;;0.72;0.70;;;;;;;18.61;100.00;98494.48;1208694;87;220093;-85
2022/05/26 08:18:12;;;;;;;2.22;1.02;;;;;;;18.63;100.00;98495.17;1630855;87;28090;-85
2022/05/26 08:20:38;;;;;;;2.62;0.82;;;;;;;18.65;100.00;98498.52;1636450;85;28111;-84
2022/05/26 08:23:05;;;;;;;0.70;0.70;;;;;;;18.73;100.00;98499.87;1637106;85;28078;-84
2022/05/26 08:25:31;;;;;;;2.20;0.75;;;;;;;18.81;100.00;98491.98;1634887;87;28077;-85
2022/05/26 08:27:57;;;;;;;1.15;0.85;;;;;;;18.91;100.00;98493.18;1636283;85;28151;-84
2022/05/26 08:30:23;;;;;;;0.80;0.62;;;;;;;19.00;100.00;98501.02;1638359;86;28231;-85
2022/05/26 08:32:55;;;;;;;1.02;0.60;;;;;;;19.04;100.00;98497.05;1636112;87;28074;-85
2022/05/26 08:35:22;;;;;;;1.40;0.80;;;;;;;19.09;100.00;98500.58;1638150;87;28180;-84
2022/05/26 08:37:49;;;;;;;1.72;0.80;;;;;;;19.17;100.00;98499.27;1634210;86;28080;-84
2022/05/26 08:40:32;;;;;;;3.72;0.80;;;;;;;19.26;100.00;98500.95;1634459;86;28138;-89
2022/05/26 08:42:58;;;;;;;2.47;0.70;;;;;;;19.30;100.00;98508.95;1640106;86;28216;-88
2022/05/26 08:45:25;;;;;;;1.15;0.80;;;;;;;19.34;100.00;98501.00;1638919;85;28148;-89
2022/05/26 08:47:52;;;;;;;1.42;0.50;;;;;;;19.41;100.00;98499.37;1662975;85;28105;-89
2022/05/26 08:50:31;;;;;;;4.35;0.82;;;;;;;19.49;100.00;98498.08;1664405;85;28100;-87
2022/05/26 08:52:59;;;;;;;;;;;;;;;19.54;100.00;98493.12;1665789;85;28133;-84
2022/05/26 08:55:26;;;;;;;;;;;;;;;19.68;100.00;98494.82;1667950;85;24814;-84
2022/05/26 08:58:01;;;;;;;;;;;;;;;19.81;100.00;98495.16;1667325;85;21995;-89
2022/05/26 09:00:34;;;;;;;;;;;;;;;19.98;100.00;98504.31;1664583;85;26101;-84
2022/05/26 09:03:00;;;;;;;;;;;;;;;20.03;100.00;98509.13;1670024;85;24469;-84
2022/05/26 09:05:35;;;;;;;;;;;;;;;20.11;100.00;98500.34;1670769;85;20300;-84
2022/05/26 09:13:38;;;;;;;;;;;;;;;20.25;100.00;98504.98;1672340;85;26042;-84
2022/05/26 09:16:09;;;;;;;;;;;;;;;20.26;100.00;98507.48;1666666;85;25208;-89
2022/05/26 09:18:40;;;;;;;;;;;;;;;20.35;100.00;98520.30;1673105;85;20546;-89
2022/05/26 09:21:26;;;;;;;1.55;0.62;;;;;;;20.43;100.00;98518.48;1660313;85;25399;-89
2022/05/26 09:23:54;;;;;;;1.95;0.60;;;;;;;20.44;100.00;98511.34;1666741;85;28102;-84
2022/05/26 09:26:23;;;;;;;1.65;0.50;;;;;;;20.40;100.00;98511.35;1662754;85;28091;-84
2022/05/26 09:28:51;;;;;;;1.20;0.60;;;;;;;20.46;100.00;98518.14;1662371;85;28149;-89
2022/05/26 09:31:25;;;;;;;1.50;0.50;;;;;;;20.53;100.00;98516.14;1660426;85;28106;-89
2022/05/26 09:34:16;;;;;;;1.47;0.50;;;;;;;20.59;100.00;98518.12;1637935;87;28086;-84
2022/05/26 09:36:52;;;;;;;0.95;0.60;;;;;;;20.50;98.72;98509.34;1665560;85;28492;-89
2022/05/26 09:39:34;;;;;;;2.52;0.85;;;;;;;20.50;97.15;98512.00;1663676;85;28197;-84
2022/05/26 09:41:59;;;;;;;4.03;1.00;;;;;;;20.54;95.98;98516.48;1661293;85;28087;-88
2022/05/26 09:44:32;;;;;;;1.60;0.60;;;;;;;20.58;94.46;98513.80;1670249;85;28074;-88
2022/05/26 09:47:03;;;;;;;1.67;0.60;;;;;;;20.62;93.42;98513.83;1662052;85;28163;-87
2022/05/26 09:49:32;;;;;;;;;;;;;;;20.63;92.31;98514.96;1669130;85;28133;-85
2022/05/26 09:52:13;;;;;;;;;;;;;;;20.61;90.96;98501.02;1671906;84;26144;-89
2022/05/26 09:54:39;;;;;;;;;;;;;;;20.54;89.21;98515.98;1669435;85;44905;-84
2022/05/26 09:57:19;;;;;;;;;;;;;;;20.48;87.63;98505.18;1667772;84;20839;-84
2022/05/26 09:59:45;;;;;;;;;;;;;;;20.46;87.02;98504.84;1666831;85;24803;-87
2022/05/26 10:02:13;;;;;;;;;;;;;;;20.53;86.98;98505.50;1669973;85;22049;-84
2022/05/26 10:04:40;;;;;;;;;;;;;;;20.55;85.87;98514.16;1673838;85;26164;-84
2022/05/26 10:07:08;;;;;;;;;;;;;;;20.59;84.97;98514.14;1672239;85;24399;-89
2022/05/26 10:09:48;;;;;;;;;;;;;;;20.55;83.86;98510.17;1664981;85;20362;-89
2022/05/26 10:12:33;;;;;;;;;;;;;;;20.56;83.00;98510.01;1667940;85;24746;-89
2022/05/26 10:15:07;;;;;;;;;;;;;;;20.62;82.38;98511.16;1672023;85;22062;-89
2022/05/26 10:17:39;;;;;;;;;;;;;;;20.70;81.76;98509.31;1669151;85;26204;-87
2022/05/26 10:20:19;;;;;;;;;;;;;;;20.86;82.13;98511.94;1666063;85;24556;-87
2022/05/26 10:23:02;;;;;;;;;;;;;;;21.03;82.40;98503.91;1675348;85;20196;-84
2022/05/26 10:25:50;;;;;;;;;;;;;;;21.02;81.23;98500.91;1672271;84;24980;-87
2022/05/26 10:28:32;;;;;;;;;;;;;;;21.01;80.64;98502.73;1668436;85;21948;-89
2022/05/26 10:31:18;;;;;;;;;;;;;;;20.98;80.10;98516.39;1667765;85;26101;-87
2022/05/26 10:33:49;;;;;;;;;;;;;;;20.98;79.99;98518.22;1674289;85;24430;-87
2022/05/26 10:36:23;;;;;;;;;;;;;;;20.97;79.39;98514.73;1669906;84;20307;-89
2022/05/26 10:39:08;;;;;;;;;;;;;;;20.98;78.99;98514.23;1671173;85;24778;-87
2022/05/26 10:41:40;;;;;;;;;;;;;;;21.00;78.56;98510.38;1669511;85;22075;-84
2022/05/26 10:44:11;;;;;;;;;;;;;;;21.04;78.59;98510.39;1673851;85;26322;-85
2022/05/26 10:46:38;;;;;;;;;;;;;;;21.03;77.83;98514.05;1667981;85;25309;-85
2022/05/26 10:49:09;;;;;;;;;;;;;;;20.96;76.77;98515.72;1671294;85;20347;-84
2022/05/26 10:51:43;;;;;;;;;;;;;;;20.93;76.08;98516.08;1672109;85;25424;-84
2022/05/26 10:54:14;;;;;;;;;;;;;;;20.81;75.16;98512.11;1669282;85;22020;-84
2022/05/26 10:56:42;;;;;;;;;;;;;;;20.68;74.13;98525.09;1670899;85;25978;-84
2022/05/26 10:59:10;;;;;;;;;;;;;;;20.57;73.47;98522.77;1665449;85;24562;-87
2022/05/26 11:01:44;;;;;;;;;;;;;;;20.45;72.73;98528.47;1668363;85;20322;-87
2022/05/26 11:04:21;;;;;;;;;;;;;;;20.39;72.09;98524.30;1669718;85;24879;-87
2022/05/26 11:06:51;;;;;;;;;;;;;;;20.48;72.40;98526.45;1673518;85;22004;-83
2022/05/26 11:09:18;;;;;;;;;;;;;;;20.54;72.61;98515.98;1669825;85;27753;-84
2022/05/26 11:11:50;;;;;;;;;;;;;;;20.61;72.83;98524.95;1666458;85;24452;-84
2022/05/26 11:17:23;;;;;;;;;;;;;;;20.61;73.13;98519.64;1665911;85;25575;-89
2022/05/26 11:20:09;;;;;;;;;;;;;;;20.44;72.43;98522.81;1671756;85;21970;-87
2022/05/26 11:22:35;;;;;;;;;;;;;;;20.39;72.37;98520.31;1667851;85;26170;-88
2022/05/26 11:25:03;;;;;;;;;;;;;;;20.40;72.50;98514.81;1667253;85;23952;-84
2022/05/26 11:27:36;;;;;;;;;;;;;;;20.69;73.37;98510.80;1669841;85;20607;-87
2022/05/26 11:36:07;;;;;;;;;;;;;;;21.04;74.29;98500.25;1668197;85;24752;-87
2022/05/26 11:38:10;;;;;;;;;;;;;;;21.33;74.32;98501.00;1670855;85;24509;-83
2022/05/26 11:40:38;;;;;;;;;;;;;;;21.24;73.99;98502.36;1671143;85;20915;-88
2022/05/26 11:43:07;;;;;;;;;;;;;;;21.14;73.41;98496.41;1668291;85;24825;-87
2022/05/26 11:45:34;;;;;;;;;;;;;;;21.16;73.31;98489.59;1667170;85;21513;-87
2022/05/26 11:48:03;;;;;;;;;;;;;;;21.25;73.10;98490.71;1671782;85;26702;-87
2022/05/26 11:50:31;;;;;;;;;;;;;;;21.23;72.70;98482.05;1675386;85;24434;-84
2022/05/26 11:52:59;;;;;;;;;;;;;;;21.12;71.83;98486.39;1666314;85;20182;-84
2022/05/26 11:55:27;;;;;;;;;;;;;;;21.01;70.68;98485.94;1675604;84;24925;-89
2022/05/26 11:57:54;;;;;;;;;;;;;;;21.06;70.30;98481.75;1675844;85;22050;-84
2022/05/26 12:00:38;;;;;;;;;;;;;;;21.20;70.28;98479.75;1669773;85;25626;-84
2022/05/26 12:03:24;;;;;;;;;;;;;;;21.32;70.30;98471.39;1669771;85;24414;-84
2022/05/26 12:06:08;;;;;;;;;;;;;;;21.48;70.46;98487.27;1677216;85;20252;-89
2022/05/26 12:08:39;;;;;;;;;;;;;;;21.68;70.94;98479.98;1672444;85;24746;-84
2022/05/26 12:11:09;;;;;;;;;;;;;;;21.87;71.11;98477.88;1673196;85;22080;-84
2022/05/26 12:13:36;;;;;;;;;;;;;;;21.85;70.65;98483.87;1673651;85;26140;-84
2022/05/26 12:16:20;;;;;;;;;;;;;;;21.76;70.08;98484.45;1674432;85;25059;-84
2022/05/26 12:18:57;;;;;;;;;;;;;;;21.58;69.31;98475.89;1675156;85;20291;-87
2022/05/26 12:21:31;;;;;;;;;;;;;;;21.45;68.83;98471.13;1669310;85;24851;-87
2022/05/26 12:23:58;;;;;;;;;;;;;;;21.36;68.41;98469.53;1673010;85;22170;-87
2022/05/26 12:26:26;;;;;;;;;;;;;;;21.27;67.87;98475.38;1669044;85;25973;-88
2022/05/26 12:28:52;;;;;;;;;;;;;;;21.37;68.02;98473.02;1676594;85;24537;-89
2022/05/26 12:31:18;;;;;;;;;;;;;;;21.40;67.96;98468.16;1679600;85;20597;-84
2022/05/26 12:33:55;;;;;;;;;;;;;;;21.42;67.89;98460.84;1673917;85;24818;-85
2022/05/26 12:36:32;;;;;;;;;;;;;;;21.33;67.13;98470.39;1668134;85;22016;-84
2022/05/26 12:38:59;;;;;;;;;;;;;;;21.24;66.56;98473.07;1673088;85;26020;-84
2022/05/26 12:41:44;;;;;;;;;;;;;;;21.13;66.20;98461.45;1671659;85;24695;-84
2022/05/26 12:44:31;;;;;;;;;;;;;;;21.06;66.20;98472.44;1676414;85;20255;-84
2022/05/26 12:47:07;;;;;;;;;;;;;;;21.02;66.57;98472.96;1675661;85;25682;-85
2022/05/26 12:49:53;;;;;;;;;;;;;;;20.92;66.64;98476.33;1669123;85;21929;-87
2022/05/26 12:52:20;;;;;;;;;;;;;;;20.75;66.13;98486.19;1668058;84;26165;-84
2022/05/26 12:54:48;;;;;;;;;;;;;;;20.63;65.85;98475.56;1673060;85;24841;-84
2022/05/26 12:57:16;;;;;;;;;;;;;;;20.63;66.00;98480.88;1623967;85;20279;-85
2022/05/26 12:59:42;;;;;;;;;;;;;;;20.70;66.38;98476.06;1663694;85;24750;-84
2022/05/26 13:02:10;;;;;;;;;;;;;;;20.77;66.72;98468.23;1670685;85;20247;-84
2022/05/26 13:04:35;;;;;;;;;;;;;;;20.78;66.65;98459.27;1673232;84;26068;-88
2022/05/26 13:07:04;;;;;;;;;;;;;;;20.80;66.81;98466.55;1671741;85;20869;-84
2022/05/26 13:09:32;;;;;;;;;;;;;;;20.87;67.04;98473.69;1671000;85;20214;-84
2022/05/26 13:11:59;;;;;;;;;;;;;;;20.94;67.31;98473.84;1665111;84;24944;-84
2022/05/26 13:14:41;;;;;;;;;;;;;;;21.01;67.63;98461.98;1668507;85;21926;-84
2022/05/26 13:17:12;;;;;;;;;;;;;;;21.04;67.93;98473.14;1673732;85;26693;-87
2022/05/26 13:19:51;;;;;;;;;;;;;;;21.06;68.02;98468.45;1672044;85;25163;-87
2022/05/26 13:22:37;;;;;;;;;;;;;;;21.07;67.99;98472.78;1668466;85;20157;-87
2022/05/26 13:25:12;;;;;;;;;;;;;;;21.13;68.23;98465.44;1669316;85;25543;-87